Daglege Rapportar

Klikk her for oppdatering!


Detaljar i dag

23/7/19
Time         Wind Dir   Wind Spd  Wind Gust   Humidity       Temp  Raw Barom   Tot Rain Temp Out H Temp Out L  DailyRain   HourRain
                            mps        mps          %         C         mb         mm         C         C         mm         mm
0:00              348          0          1         94       14.6    1014.23     414.60       14.6       14.6       0.00       0.20
1:00              348          0          0         95       14.6    1014.50     414.80       14.6       14.5       0.20       0.20
2:00              348          0          1         95       14.6    1015.38     414.80       14.6       14.5       0.20       0.20
3:00              348          0          0         95       14.6    1015.55     415.20       14.6       14.5       0.60       0.40
4:00              348          0          1         95       14.6    1016.23     415.20       14.6       14.5       0.60       0.40
5:00              348          0          1         95       14.6    1016.87     415.20       14.6       14.5       0.60       0.00
6:00              348          0          1         96       14.7    1017.31     415.40       14.8       14.5       0.80       0.20
7:00              348          0          0         96       15.1    1017.51     415.40       15.1       14.5       0.80       0.00
8:00               38          0          1         94       15.9    1017.81     415.40       15.9       14.5       0.80       0.00
9:00               53          0          1         90       16.5    1018.73     415.40       16.6       14.5       0.80       0.00
10:00             171          0          2         90       16.6    1018.96     415.40       16.7       14.5       0.80       0.00
11:00             167          0          0         91       16.4    1019.67     415.40       16.7       14.5       0.80       0.00

 


Detaljar i gr

22/7/19
Time         Wind Dir   Wind Spd  Wind Gust   Humidity       Temp  Raw Barom   Tot Rain Temp Out H Temp Out L  DailyRain   HourRain
                            mps        mps          %         C         mb         mm         C         C         mm         mm
0:00              339          0          4         77       14.3    1017.68     413.00       14.3       14.3       7.20       0.00
1:00              355          0          3         75       14.1    1018.05     413.00       14.6       14.1       0.00       0.00
2:00              355          0          3         79       12.8    1018.02     413.00       14.6       12.8       0.00       0.00
3:00              355          1          2         86       11.1    1017.95     413.00       14.6       11.1       0.00       0.00
4:00              355          0          1         87       10.4    1017.75     413.00       14.6       10.4       0.00       0.00
5:00              355          0          1         88       10.2    1017.88     413.00       14.6       10.2       0.00       0.00
6:00              355          0          1         89       11.1    1017.71     413.00       14.6       10.0       0.00       0.00
7:00              355          0          1         86       12.4    1017.37     413.00       14.6       10.0       0.00       0.00
8:00               74          0          1         76       14.4    1017.10     413.00       14.6       10.0       0.00       0.00
9:00              190          1          2         75       15.1    1016.63     413.00       15.3       10.0       0.00       0.00
10:00             180          0          2         75       15.7    1016.26     413.00       15.7       10.0       0.00       0.00
11:00             136          2          3         74       16.1    1015.85     413.00       16.1       10.0       0.00       0.00
12:00             215          1          2         73       16.2    1015.52     413.00       16.9       10.0       0.00       0.00
13:00             129          0          2         75       16.7    1015.04     413.00       16.9       10.0       0.00       0.00
14:00             238          0          1         74       17.4    1014.43     413.00       17.4       10.0       0.00       0.00
15:00             137          0          3         68       18.6    1013.69     413.00       18.7       10.0       0.00       0.00
16:00             338          0          2         70       18.1    1012.74     413.00       18.9       10.0       0.00       0.00
17:00             355          0          1         73       17.4    1012.17     413.00       18.9       10.0       0.00       0.00
18:00             343          1          2         81       16.3    1011.93     413.00       18.9       10.0       0.00       0.00
19:00             342          0          1         89       15.3    1011.93     413.60       18.9       10.0       0.60       0.60
20:00              34          0          2         89       15.3    1012.34     413.80       18.9       10.0       0.80       0.40
21:00             355          0          2         91       15.1    1012.58     414.20       18.9       10.0       1.20       0.40
22:00              49          0          2         92       14.9    1013.18     414.40       18.9       10.0       1.40       0.40
23:00             348          0          2         92       14.7    1013.76     414.60       18.9       10.0       1.60       0.20